Time;durP1;ratioP1;P1;durP2;ratioP2;P2;SDS_P1;SDS_P2;PMS_P1;PMS_P2;Temp;Humidity;BMP_temperature;BMP_pressure;BME280_temperature;BME280_humidity;BME280_pressure;Samples;Min_cycle;Max_cycle;Signal;HPM_P1;HPM_P2
2023/06/06 00:01:49;;;;;;;4.60;3.67;;;;;;;17.24;87.90;100186.22;5064291;28;20238;-79
2023/06/06 00:04:15;;;;;;;5.20;3.90;;;;;;;17.37;87.98;100187.44;5080083;28;20191;-80
2023/06/06 00:06:44;;;;;;;5.10;3.80;;;;;;;17.28;88.64;100184.34;5077235;28;20302;-77
2023/06/06 00:09:10;;;;;;;4.33;3.83;;;;;;;17.25;88.73;100187.06;5069644;28;20188;-79
2023/06/06 00:11:36;;;;;;;4.83;3.63;;;;;;;17.26;89.73;100191.38;5062394;28;20708;-79
2023/06/06 00:14:01;;;;;;;4.97;4.00;;;;;;;17.28;90.12;100190.44;5083127;28;20189;-76
2023/06/06 00:16:27;;;;;;;4.73;4.37;;;;;;;17.26;90.17;100184.41;5080841;28;20701;-77
2023/06/06 00:18:55;;;;;;;3.90;3.60;;;;;;;17.21;90.45;100194.19;5064353;28;20197;-77
2023/06/06 00:21:22;;;;;;;5.80;3.90;;;;;;;17.21;91.78;100196.78;5081693;28;20185;-78
2023/06/06 00:23:49;;;;;;;4.50;3.87;;;;;;;17.18;91.83;100195.16;5084006;28;20637;-78
2023/06/06 00:26:14;;;;;;;4.93;3.87;;;;;;;17.18;91.86;100191.69;5069536;28;20185;-78
2023/06/06 00:28:40;;;;;;;4.13;3.77;;;;;;;17.15;92.69;100189.19;5058653;28;20262;-78
2023/06/06 00:31:05;;;;;;;4.27;3.87;;;;;;;17.13;93.02;100198.88;5066929;28;20189;-77
2023/06/06 00:33:30;;;;;;;10.77;4.77;;;;;;;17.19;93.45;100196.00;5066143;28;20259;-79
2023/06/06 00:35:55;;;;;;;11.57;4.70;;;;;;;17.23;92.86;100197.59;5085223;28;20213;-79
2023/06/06 00:38:21;;;;;;;9.40;4.03;;;;;;;17.28;93.24;100187.81;5081920;28;20868;-77
2023/06/06 00:40:46;;;;;;;4.80;3.93;;;;;;;17.32;93.53;100197.22;5058963;28;20208;-79
2023/06/06 00:43:11;;;;;;;4.50;4.10;;;;;;;17.42;93.13;100189.88;5087239;28;20202;-78
2023/06/06 00:45:37;;;;;;;4.77;3.87;;;;;;;17.40;93.73;100191.69;5077090;28;20724;-80
2023/06/06 00:48:02;;;;;;;3.73;3.50;;;;;;;17.50;93.26;100187.84;5085073;28;20792;-81
2023/06/06 00:50:28;;;;;;;5.60;4.10;;;;;;;17.53;93.47;100199.94;5084807;28;20191;-78
2023/06/06 00:52:55;;;;;;;4.33;4.03;;;;;;;17.50;94.13;100194.81;5067481;28;20298;-78
2023/06/06 00:55:21;;;;;;;4.10;3.77;;;;;;;17.50;94.18;100190.44;5082569;28;20206;-79
2023/06/06 00:57:48;;;;;;;4.10;3.80;;;;;;;17.54;93.83;100190.34;5082571;28;20279;-79
2023/06/06 01:00:15;;;;;;;4.07;3.77;;;;;;;17.52;93.82;100200.84;5084413;28;20201;-78
2023/06/06 01:02:43;;;;;;;3.93;3.63;;;;;;;17.49;93.98;100193.09;5080830;28;20206;-79
2023/06/06 01:05:11;;;;;;;5.37;4.13;;;;;;;17.47;94.07;100192.34;5076002;28;20209;-80
2023/06/06 01:07:36;;;;;;;3.90;3.60;;;;;;;17.47;94.22;100194.97;5080246;28;20284;-80
2023/06/06 01:10:08;;;;;;;4.87;3.83;;;;;;;17.45;93.70;100195.00;5089253;28;20272;-79
2023/06/06 01:12:56;;;;;;;6.17;4.27;;;;;;;17.44;94.27;100200.31;5079457;28;20667;-78
2023/06/06 01:15:26;;;;;;;3.77;3.47;;;;;;;17.36;94.32;100201.44;5089818;28;20216;-78
2023/06/06 01:17:52;;;;;;;4.57;4.17;;;;;;;17.34;95.88;100197.19;5083331;28;20737;-77
2023/06/06 01:20:21;;;;;;;3.50;3.30;;;;;;;17.30;95.48;100204.31;5084054;28;20205;-78
2023/06/06 01:22:48;;;;;;;4.23;3.90;;;;;;;17.28;96.18;100195.66;5066124;28;20216;-77
2023/06/06 01:25:19;;;;;;;4.80;4.40;;;;;;;17.26;95.80;100201.84;5089591;28;20243;-80
2023/06/06 01:27:46;;;;;;;4.33;3.97;;;;;;;17.21;96.11;100194.19;5065072;28;20200;-78
2023/06/06 01:30:11;;;;;;;4.10;3.80;;;;;;;17.23;95.87;100197.59;5089760;28;20198;-79
2023/06/06 01:32:47;;;;;;;4.20;3.90;;;;;;;17.19;96.03;100193.38;5078601;28;20216;-78
2023/06/06 01:36:08;;;;;;;5.67;3.63;;;;;;;17.18;95.73;100199.53;5080223;28;20296;-80
2023/06/06 01:38:43;;;;;;;4.40;3.77;;;;;;;17.19;95.76;100193.38;5009723;28;20287;-81
2023/06/06 01:41:10;;;;;;;4.07;3.37;;;;;;;17.14;96.16;100197.97;5062401;28;20177;-79
2023/06/06 01:43:38;;;;;;;3.23;2.93;;;;;;;17.08;96.07;100192.94;5066078;28;20203;-79
2023/06/06 01:46:06;;;;;;;3.83;3.53;;;;;;;17.06;96.20;100199.09;5083952;28;20204;-79
2023/06/06 01:48:32;;;;;;;4.57;3.30;;;;;;;17.12;96.30;100194.53;5083471;28;20285;-79
2023/06/06 01:50:57;;;;;;;3.70;3.40;;;;;;;17.14;96.30;100200.56;5075543;28;20228;-78
2023/06/06 01:53:23;;;;;;;4.50;3.10;;;;;;;17.18;95.20;100205.63;5063229;28;20246;-81
2023/06/06 01:55:48;;;;;;;3.73;3.37;;;;;;;17.25;95.08;100205.38;5087697;28;20277;-80
2023/06/06 01:58:15;;;;;;;3.63;3.33;;;;;;;17.30;95.11;100196.47;5086189;28;20180;-79
2023/06/06 02:00:40;;;;;;;3.63;3.33;;;;;;;17.31;94.52;100207.75;5085030;28;20233;-82
2023/06/06 02:03:06;;;;;;;3.30;3.10;;;;;;;17.27;95.79;100198.31;5060556;28;20200;-82
2023/06/06 02:05:31;;;;;;;4.40;3.43;;;;;;;17.13;96.51;100198.88;5084394;28;20617;-80
2023/06/06 02:07:57;;;;;;;3.70;3.40;;;;;;;17.03;97.06;100211.44;5061984;28;20985;-80
2023/06/06 02:10:23;;;;;;;3.77;3.47;;;;;;;16.92;97.19;100209.16;5059072;28;20174;-80
2023/06/06 02:12:48;;;;;;;3.67;3.00;;;;;;;16.76;97.83;100203.66;5078237;28;20235;-78
2023/06/06 02:15:14;;;;;;;3.10;2.90;;;;;;;16.70;97.75;100207.34;5085742;28;20216;-81
2023/06/06 02:17:40;;;;;;;3.70;3.40;;;;;;;16.66;98.13;100210.09;5066529;28;20218;-79
2023/06/06 02:20:07;;;;;;;3.57;3.23;;;;;;;16.57;97.63;100216.50;5088919;28;20168;-78
2023/06/06 02:22:33;;;;;;;3.47;3.17;;;;;;;16.53;97.30;100207.94;5109138;28;20192;-80
2023/06/06 02:24:59;;;;;;;3.77;3.43;;;;;;;16.47;96.80;100208.16;5083469;28;20283;-80
2023/06/06 02:27:24;;;;;;;3.50;3.23;;;;;;;16.33;97.19;100215.63;5104123;28;20442;-80
2023/06/06 02:29:50;;;;;;;3.80;3.30;;;;;;;16.28;97.44;100216.63;5070439;28;20235;-80
2023/06/06 02:32:15;;;;;;;3.83;3.53;;;;;;;16.28;97.53;100220.97;5084778;28;20226;-79
2023/06/06 02:34:41;;;;;;;3.67;3.37;;;;;;;16.31;98.71;100228.72;5064994;28;20266;-80
2023/06/06 02:37:06;;;;;;;4.50;3.70;;;;;;;16.33;100.00;100228.69;5074609;28;20209;-79
2023/06/06 02:39:36;;;;;;;4.37;3.70;;;;;;;16.35;100.00;100235.53;5087775;28;20649;-79
2023/06/06 02:42:05;;;;;;;4.70;3.30;;;;;;;16.38;100.00;100238.06;5080020;28;20202;-79
2023/06/06 02:44:30;;;;;;;4.37;4.07;;;;;;;16.25;100.00;100235.00;5075922;28;20219;-78
2023/06/06 02:46:57;;;;;;;3.10;2.90;;;;;;;16.24;100.00;100237.66;5084809;28;20180;-79
2023/06/06 02:49:22;;;;;;;4.23;3.30;;;;;;;16.17;100.00;100239.63;5067244;28;20195;-78
2023/06/06 02:51:48;;;;;;;3.73;3.43;;;;;;;16.08;100.00;100238.19;5072516;28;20212;-80
2023/06/06 02:54:13;;;;;;;3.77;3.53;;;;;;;15.96;100.00;100226.38;5081745;28;20379;-81
2023/06/06 02:56:38;;;;;;;3.60;3.30;;;;;;;15.90;100.00;100236.16;5086210;28;20214;-79
2023/06/06 02:59:04;;;;;;;3.53;3.23;;;;;;;15.87;100.00;100228.41;5079217;28;20171;-79
2023/06/06 03:01:30;;;;;;;4.20;3.80;;;;;;;15.80;100.00;100230.34;5061938;28;20175;-79
2023/06/06 03:03:56;;;;;;;3.97;3.57;;;;;;;15.74;100.00;100227.91;5086093;28;20214;-80
2023/06/06 03:06:22;;;;;;;4.90;3.60;;;;;;;15.68;100.00;100237.66;5077766;28;20182;-78
2023/06/06 03:08:47;;;;;;;3.60;3.30;;;;;;;15.62;100.00;100239.59;5068070;28;20187;-78
2023/06/06 03:11:12;;;;;;;3.47;3.17;;;;;;;15.61;100.00;100241.34;5077370;28;20181;-78
2023/06/06 03:13:38;;;;;;;3.60;3.40;;;;;;;15.60;100.00;100242.22;5061277;28;20250;-79
2023/06/06 03:16:04;;;;;;;3.87;3.17;;;;;;;15.61;100.00;100249.16;5076307;28;20237;-79
2023/06/06 03:18:31;;;;;;;5.50;3.83;;;;;;;15.57;100.00;100247.56;5078726;28;20853;-78
2023/06/06 03:20:57;;;;;;;8.20;4.17;;;;;;;15.55;100.00;100238.94;5078623;28;20247;-81
2023/06/06 03:23:22;;;;;;;5.70;3.80;;;;;;;15.47;100.00;100246.13;5062508;28;20203;-79
2023/06/06 03:25:51;;;;;;;5.53;3.70;;;;;;;15.41;100.00;100254.97;5059263;28;20188;-78
2023/06/06 03:28:18;;;;;;;4.13;3.77;;;;;;;15.36;100.00;100252.50;5062163;28;20207;-79
2023/06/06 03:30:45;;;;;;;5.30;3.43;;;;;;;15.31;100.00;100257.00;5076015;28;20302;-78
2023/06/06 03:33:11;;;;;;;5.30;4.27;;;;;;;15.29;100.00;100252.75;5075674;28;20206;-78
2023/06/06 03:35:37;;;;;;;4.93;3.60;;;;;;;15.29;100.00;100263.16;5080003;28;20200;-78
2023/06/06 03:38:02;;;;;;;6.73;4.03;;;;;;;15.33;100.00;100257.81;5075627;28;20188;-78
2023/06/06 03:40:28;;;;;;;6.33;3.77;;;;;;;15.34;100.00;100259.53;5080183;28;20190;-78
2023/06/06 03:42:54;;;;;;;6.30;3.50;;;;;;;15.35;100.00;100263.84;5076408;28;20234;-77
2023/06/06 03:45:21;;;;;;;8.87;4.70;;;;;;;15.33;100.00;100270.00;5079291;28;20223;-79
2023/06/06 03:47:47;;;;;;;9.27;4.30;;;;;;;15.28;100.00;100270.13;5079831;28;20193;-77
2023/06/06 03:50:12;;;;;;;7.87;4.43;;;;;;;15.21;100.00;100263.38;5082347;28;20241;-80
2023/06/06 03:52:40;;;;;;;20.93;5.57;;;;;;;15.32;100.00;100265.69;5079142;28;20210;-80
2023/06/06 03:55:05;;;;;;;11.77;4.23;;;;;;;15.39;100.00;100265.47;5083148;28;20201;-79
2023/06/06 03:57:30;;;;;;;10.47;4.43;;;;;;;15.43;100.00;100266.22;5085861;28;20435;-79
2023/06/06 03:59:56;;;;;;;5.83;4.00;;;;;;;15.32;100.00;100270.91;5081815;28;20281;-79
2023/06/06 04:02:21;;;;;;;4.93;4.10;;;;;;;15.38;100.00;100265.50;5062910;28;20211;-81
2023/06/06 04:04:50;;;;;;;4.50;4.10;;;;;;;15.39;100.00;100267.22;5062369;28;20190;-78
2023/06/06 04:07:16;;;;;;;4.67;4.17;;;;;;;15.41;100.00;100273.22;5075299;28;20274;-79
2023/06/06 04:09:42;;;;;;;5.00;3.90;;;;;;;15.41;100.00;100278.44;5074078;28;20254;-79
2023/06/06 04:12:08;;;;;;;4.93;3.87;;;;;;;15.43;100.00;100270.59;5082278;28;20209;-78
2023/06/06 04:14:34;;;;;;;4.83;4.20;;;;;;;15.34;100.00;100276.94;5082099;28;20192;-77
2023/06/06 04:17:01;;;;;;;5.13;4.33;;;;;;;15.35;100.00;100273.44;5079573;28;20191;-80
2023/06/06 04:19:27;;;;;;;4.63;4.10;;;;;;;15.46;100.00;100275.69;5086061;28;20177;-77
2023/06/06 04:21:54;;;;;;;6.27;4.30;;;;;;;15.58;100.00;100280.53;5062158;28;20720;-80
2023/06/06 04:24:19;;;;;;;4.80;4.10;;;;;;;15.74;100.00;100287.91;5087453;28;20612;-80
2023/06/06 04:26:44;;;;;;;6.03;4.30;;;;;;;15.68;100.00;100283.75;5077454;28;20266;-83
2023/06/06 04:29:13;;;;;;;4.70;4.30;;;;;;;15.73;100.00;100284.47;5065146;28;20560;-79
2023/06/06 04:31:40;;;;;;;5.20;4.13;;;;;;;15.68;100.00;100287.22;5086081;28;20281;-79
2023/06/06 04:34:06;;;;;;;5.43;4.37;;;;;;;15.67;100.00;100285.50;5076077;28;20269;-78
2023/06/06 04:36:33;;;;;;;5.00;4.00;;;;;;;15.80;100.00;100291.22;5080535;28;20540;-82
2023/06/06 04:39:00;;;;;;;4.07;3.70;;;;;;;16.03;100.00;100292.28;5069021;28;20181;-78
2023/06/06 04:41:25;;;;;;;4.13;3.60;;;;;;;16.18;100.00;100285.72;5080431;28;20213;-77
2023/06/06 04:43:51;;;;;;;4.27;3.97;;;;;;;16.41;100.00;100289.31;5082590;28;20713;-78
2023/06/06 04:46:23;;;;;;;4.30;3.90;;;;;;;16.67;100.00;100288.44;5090311;28;20869;-79
2023/06/06 04:48:56;;;;;;;6.00;3.70;;;;;;;17.04;99.67;100291.56;5082765;28;20176;-79
2023/06/06 04:51:29;;;;;;;3.90;3.57;;;;;;;17.49;99.33;100295.16;5086098;28;20177;-78
2023/06/06 04:53:59;;;;;;;4.13;3.73;;;;;;;17.76;97.21;100284.56;5069688;28;20200;-78
2023/06/06 04:56:29;;;;;;;5.10;3.83;;;;;;;18.21;94.66;100298.50;5092031;28;20222;-78
2023/06/06 04:59:11;;;;;;;4.27;3.77;;;;;;;18.27;94.78;100290.41;5084330;28;20200;-79
2023/06/06 05:01:37;;;;;;;4.63;3.70;;;;;;;18.61;93.98;100288.97;5063504;28;20206;-78
2023/06/06 05:04:06;;;;;;;3.87;3.57;;;;;;;18.39;93.41;100291.66;5084393;28;20187;-80
2023/06/06 05:06:34;;;;;;;7.07;4.40;;;;;;;18.38;93.64;100287.31;5086574;28;20202;-79
2023/06/06 05:09:03;;;;;;;5.73;3.60;;;;;;;18.47;93.67;100300.06;5078973;28;20242;-78
2023/06/06 05:11:29;;;;;;;4.53;3.80;;;;;;;18.98;92.33;100291.84;5069215;28;20680;-78
2023/06/06 05:13:54;;;;;;;4.27;3.67;;;;;;;19.03;91.26;100295.97;5078223;28;20283;-78
2023/06/06 05:16:20;;;;;;;4.10;3.70;;;;;;;18.42;92.52;100294.16;5063781;28;20273;-78
2023/06/06 05:18:45;;;;;;;6.07;3.80;;;;;;;18.46;92.47;100307.97;5087388;28;20215;-78
2023/06/06 05:21:10;;;;;;;7.50;4.50;;;;;;;18.41;93.93;100302.94;5088296;28;20197;-80
2023/06/06 05:23:36;;;;;;;5.40;3.57;;;;;;;18.61;91.67;100312.56;5083225;28;20231;-77
2023/06/06 05:26:01;;;;;;;4.80;3.60;;;;;;;18.58;91.91;100305.69;5079505;28;20184;-78
2023/06/06 05:28:30;;;;;;;5.40;3.67;;;;;;;19.23;89.85;100299.44;5067892;28;21742;-77
2023/06/06 05:30:56;;;;;;;6.67;4.27;;;;;;;19.24;90.06;100300.31;5085014;28;20276;-80
2023/06/06 05:33:22;;;;;;;4.37;3.83;;;;;;;19.73;87.54;100308.56;5067379;28;20291;-77
2023/06/06 05:35:48;;;;;;;4.23;3.50;;;;;;;19.92;86.63;100311.19;5066021;28;20303;-78
2023/06/06 05:38:16;;;;;;;4.83;3.40;;;;;;;19.43;87.54;100316.94;5087406;28;20196;-81
2023/06/06 05:40:42;;;;;;;6.07;3.83;;;;;;;18.87;90.31;100311.47;5085125;28;20212;-78
2023/06/06 05:43:07;;;;;;;5.30;3.60;;;;;;;19.08;89.42;100315.88;5063324;28;20683;-79
2023/06/06 05:45:32;;;;;;;4.20;3.80;;;;;;;19.58;87.55;100309.28;5078349;28;20185;-79
2023/06/06 05:47:58;;;;;;;5.47;3.77;;;;;;;19.30;88.01;100307.88;5088624;28;20260;-81
2023/06/06 05:50:23;;;;;;;11.13;4.30;;;;;;;19.21;89.18;100317.03;5066937;28;20223;-79
2023/06/06 05:52:48;;;;;;;4.13;3.73;;;;;;;19.49;87.40;100321.03;5082871;28;20223;-80
2023/06/06 05:55:27;;;;;;;3.73;3.30;;;;;;;19.80;85.80;100317.00;5090396;28;20220;-78
2023/06/06 05:57:52;;;;;;;6.80;3.73;;;;;;;20.13;84.70;100313.69;5075970;28;20184;-79
2023/06/06 06:00:17;;;;;;;3.57;3.27;;;;;;;20.13;85.56;100310.22;5083221;28;20564;-79
2023/06/06 06:02:43;;;;;;;3.87;3.53;;;;;;;20.97;82.55;100310.41;5080527;28;20205;-78
2023/06/06 06:05:09;;;;;;;5.50;3.33;;;;;;;21.21;81.37;100315.31;5083920;28;20229;-78
2023/06/06 06:07:34;;;;;;;3.70;3.00;;;;;;;21.67;80.15;100308.53;5070809;28;20173;-79
2023/06/06 06:09:59;;;;;;;4.20;3.60;;;;;;;21.78;78.84;100308.78;5081461;28;20181;-80
2023/06/06 06:12:25;;;;;;;5.80;3.90;;;;;;;21.51;78.91;100311.09;5073013;28;20553;-80
2023/06/06 06:14:50;;;;;;;4.23;3.37;;;;;;;21.63;78.80;100307.81;5067772;28;20297;-81
2023/06/06 06:17:15;;;;;;;4.03;3.13;;;;;;;21.52;78.51;100310.16;5067035;28;20201;-80
2023/06/06 06:19:41;;;;;;;3.30;2.90;;;;;;;21.32;78.21;100310.31;5082946;28;20177;-77
2023/06/06 06:22:07;;;;;;;4.83;2.90;;;;;;;21.83;77.94;100309.38;5080117;28;20229;-80
2023/06/06 06:24:32;;;;;;;5.20;3.10;;;;;;;21.91;77.20;100308.94;5081075;28;20189;-81
2023/06/06 06:26:58;;;;;;;3.33;3.03;;;;;;;22.67;75.72;100307.25;5068921;28;20189;-78
2023/06/06 06:29:23;;;;;;;5.10;3.33;;;;;;;22.21;76.84;100313.41;5087780;28;20258;-80
2023/06/06 06:31:48;;;;;;;5.07;3.20;;;;;;;22.68;75.75;100322.16;5088169;28;20212;-80
2023/06/06 06:34:14;;;;;;;5.70;3.43;;;;;;;22.62;75.81;100322.50;5072447;28;20192;-79
2023/06/06 06:36:39;;;;;;;3.33;2.90;;;;;;;22.46;75.35;100320.75;5089906;28;20570;-81
2023/06/06 06:39:05;;;;;;;4.60;3.03;;;;;;;22.29;76.49;100332.25;5083424;28;20181;-80
2023/06/06 06:41:30;;;;;;;5.97;3.33;;;;;;;22.04;76.53;100328.41;5058183;28;20533;-81
2023/06/06 06:43:55;;;;;;;6.83;3.70;;;;;;;21.59;77.10;100332.63;5083160;28;20188;-81
2023/06/06 06:46:21;;;;;;;4.17;3.37;;;;;;;20.63;79.98;100341.06;5089928;28;20249;-78
2023/06/06 06:48:50;;;;;;;18.00;4.00;;;;;;;21.19;78.69;100332.97;5086237;28;20181;-80
2023/06/06 06:51:16;;;;;;;9.90;4.00;;;;;;;21.29;78.15;100334.19;5079885;28;20186;-79
2023/06/06 06:53:42;;;;;;;4.20;2.60;;;;;;;21.78;76.28;100345.66;5082132;28;20224;-80
2023/06/06 06:56:07;;;;;;;3.20;2.90;;;;;;;20.85;79.52;100337.34;5084069;28;20193;-79
2023/06/06 06:58:37;;;;;;;3.80;3.03;;;;;;;21.71;77.26;100334.59;5068751;28;20177;-80
2023/06/06 07:01:05;;;;;;;3.83;2.57;;;;;;;22.28;76.16;100329.72;5087278;28;20204;-80
2023/06/06 07:03:34;;;;;;;4.07;3.07;;;;;;;21.91;75.54;100333.50;5081297;28;20212;-79
2023/06/06 07:05:59;;;;;;;3.17;2.87;;;;;;;22.47;74.85;100333.00;5082217;28;20177;-77
2023/06/06 07:08:25;;;;;;;3.87;2.97;;;;;;;21.58;76.04;100336.19;5070305;28;20759;-80
2023/06/06 07:10:50;;;;;;;3.20;3.00;;;;;;;22.06;75.15;100336.22;5086714;28;20695;-81
2023/06/06 07:13:15;;;;;;;4.97;3.07;;;;;;;21.37;77.18;100340.81;5085353;28;20242;-79
2023/06/06 07:15:40;;;;;;;3.33;3.03;;;;;;;21.30;77.40;100337.66;5063826;28;20288;-78
2023/06/06 07:18:06;;;;;;;3.70;2.80;;;;;;;21.73;75.12;100343.28;5091317;28;20177;-79
2023/06/06 07:20:31;;;;;;;3.43;3.10;;;;;;;21.73;75.10;100348.53;5090263;28;20176;-78
2023/06/06 07:22:57;;;;;;;2.97;2.77;;;;;;;22.08;74.44;100344.88;5089082;28;20216;-79
2023/06/06 07:25:22;;;;;;;3.73;2.60;;;;;;;21.98;74.55;100347.19;5085647;28;20210;-80
2023/06/06 07:27:48;;;;;;;4.17;2.93;;;;;;;22.10;74.45;100345.66;5057969;28;20560;-78
2023/06/06 07:30:14;;;;;;;2.70;2.50;;;;;;;22.40;72.88;100344.81;5052334;28;20178;-78
2023/06/06 07:32:43;;;;;;;3.40;2.93;;;;;;;22.23;72.10;100348.44;5073150;28;20209;-81
2023/06/06 07:35:13;;;;;;;3.50;2.80;;;;;;;22.21;71.64;100356.41;5090058;28;20205;-77
2023/06/06 07:37:39;;;;;;;2.87;2.60;;;;;;;22.59;71.64;100343.81;5084565;28;20178;-79
2023/06/06 07:40:08;;;;;;;5.57;2.73;;;;;;;22.66;71.76;100342.47;5088834;28;20236;-78
2023/06/06 07:42:34;;;;;;;2.80;2.60;;;;;;;22.33;70.82;100348.75;5066285;28;20723;-81
2023/06/06 07:45:00;;;;;;;3.80;2.90;;;;;;;22.61;70.03;100339.28;5084301;28;20209;-77
2023/06/06 07:47:26;;;;;;;3.97;2.70;;;;;;;23.23;68.65;100338.25;5062319;28;20696;-80
2023/06/06 07:49:52;;;;;;;3.23;2.93;;;;;;;23.20;69.07;100339.28;5084884;28;20177;-78
2023/06/06 07:52:18;;;;;;;3.00;2.67;;;;;;;22.36;69.90;100341.53;5079406;28;20201;-80
2023/06/06 07:54:44;;;;;;;3.37;3.17;;;;;;;22.92;68.24;100338.31;5084480;28;20184;-79
2023/06/06 07:57:10;;;;;;;3.53;2.70;;;;;;;22.88;67.03;100336.78;5082224;28;20566;-79
2023/06/06 07:59:36;;;;;;;4.13;2.87;;;;;;;23.26;66.42;100332.78;5087002;28;20684;-79
2023/06/06 08:02:01;;;;;;;3.53;3.23;;;;;;;23.41;65.80;100337.13;5092064;28;20200;-79
2023/06/06 08:04:27;;;;;;;3.57;2.90;;;;;;;23.47;64.85;100330.59;5069949;28;20205;-79
2023/06/06 08:06:53;;;;;;;4.33;3.00;;;;;;;23.64;64.95;100339.25;5078643;28;20182;-79
2023/06/06 08:09:19;;;;;;;3.17;2.80;;;;;;;23.81;63.99;100328.47;5077308;28;20242;-77
2023/06/06 08:11:44;;;;;;;3.13;2.50;;;;;;;24.35;63.53;100326.81;5078362;28;20597;-79
2023/06/06 08:14:10;;;;;;;2.60;2.40;;;;;;;24.03;63.40;100321.84;5073429;28;20219;-78
2023/06/06 08:16:35;;;;;;;3.47;3.10;;;;;;;23.50;64.09;100346.25;5090490;28;20193;-78
2023/06/06 08:19:00;;;;;;;5.33;3.10;;;;;;;23.31;64.96;100328.06;5090794;28;20182;-80
2023/06/06 08:21:26;;;;;;;2.77;2.57;;;;;;;23.60;64.30;100328.03;5086195;28;20210;-78
2023/06/06 08:23:53;;;;;;;3.27;2.80;;;;;;;23.49;64.75;100330.53;5056529;28;20189;-78
2023/06/06 08:26:23;;;;;;;4.23;2.80;;;;;;;23.03;64.64;100332.38;5074760;28;20181;-78
2023/06/06 08:28:49;;;;;;;3.63;3.10;;;;;;;23.08;63.76;100338.22;5085529;28;20252;-77
2023/06/06 08:31:14;;;;;;;3.40;2.93;;;;;;;23.56;63.65;100334.47;5092384;28;20185;-78
2023/06/06 08:33:41;;;;;;;2.70;2.50;;;;;;;24.09;62.16;100332.00;5087555;28;20221;-75
2023/06/06 08:36:07;;;;;;;4.23;2.80;;;;;;;24.02;61.92;100328.91;5093924;28;20230;-80
2023/06/06 08:38:32;;;;;;;3.57;3.20;;;;;;;24.41;61.57;100336.97;5068867;28;20192;-79
2023/06/06 08:41:00;;;;;;;3.33;3.03;;;;;;;24.08;62.34;100329.47;5083637;28;20538;-77
2023/06/06 08:43:27;;;;;;;3.27;2.97;;;;;;;24.48;62.56;100330.34;5081766;28;20681;-79
2023/06/06 08:45:56;;;;;;;3.17;2.73;;;;;;;24.94;62.63;100334.31;5091134;28;20188;-77
2023/06/06 08:48:26;;;;;;;5.90;3.50;;;;;;;25.13;62.07;100329.53;5090700;28;20359;-77
2023/06/06 08:50:52;;;;;;;3.20;2.80;;;;;;;25.58;61.75;100329.91;5083362;28;20338;-78
2023/06/06 08:53:19;;;;;;;4.10;2.63;;;;;;;25.71;61.65;100337.84;5091256;28;21022;-78
2023/06/06 08:55:44;;;;;;;3.83;2.70;;;;;;;25.81;61.41;100338.88;5073739;28;20208;-79
2023/06/06 08:58:11;;;;;;;2.97;2.73;;;;;;;25.45;61.29;100332.63;5089159;28;20206;-76
2023/06/06 09:00:37;;;;;;;3.43;3.13;;;;;;;25.48;60.79;100329.75;5067821;28;20177;-76
2023/06/06 09:03:06;;;;;;;3.13;2.60;;;;;;;25.22;60.70;100342.16;5084931;28;20776;-78
2023/06/06 09:05:32;;;;;;;4.80;3.20;;;;;;;23.87;60.93;100343.09;5087502;28;20531;-77
2023/06/06 09:07:58;;;;;;;5.30;3.13;;;;;;;23.62;61.35;100349.06;5089940;28;20182;-78
2023/06/06 09:10:23;;;;;;;4.00;3.20;;;;;;;23.59;60.80;100350.13;5087516;28;20216;-79
2023/06/06 09:12:49;;;;;;;3.43;3.10;;;;;;;23.09;61.88;100349.63;5086969;28;20747;-79
2023/06/06 09:15:14;;;;;;;6.10;3.63;;;;;;;23.14;61.56;100353.69;5079521;28;20219;-77
2023/06/06 09:17:43;;;;;;;3.73;3.00;;;;;;;23.24;61.58;100351.38;5069177;28;20178;-78
2023/06/06 09:20:14;;;;;;;4.80;3.00;;;;;;;23.56;60.96;100348.53;5067138;28;21071;-77
2023/06/06 09:22:41;;;;;;;3.60;3.30;;;;;;;23.36;60.61;100348.91;5083843;28;20766;-79
2023/06/06 09:25:27;;;;;;;5.07;3.40;;;;;;;23.75;61.07;100337.63;5082793;28;20182;-78
2023/06/06 09:28:00;;;;;;;3.40;3.10;;;;;;;24.25;60.97;100344.22;5087766;28;20193;-78
2023/06/06 09:30:28;;;;;;;3.73;3.20;;;;;;;24.47;60.79;100339.22;5089517;28;20252;-77
2023/06/06 09:33:03;;;;;;;3.63;2.90;;;;;;;24.55;61.72;100327.25;5062780;28;20960;-79
2023/06/06 09:35:42;;;;;;;3.50;3.20;;;;;;;24.81;60.95;100336.13;5087645;28;20193;-78
2023/06/06 09:38:18;;;;;;;4.87;2.93;;;;;;;25.03;60.22;100322.25;5069464;28;20218;-77
2023/06/06 09:40:45;;;;;;;4.83;3.10;;;;;;;24.95;59.44;100328.06;5065360;28;20177;-77
2023/06/06 09:43:11;;;;;;;3.80;3.50;;;;;;;24.09;58.92;100329.34;5081594;28;20703;-78
2023/06/06 09:45:48;;;;;;;5.53;3.70;;;;;;;24.08;60.48;100334.75;5083043;28;20188;-81
2023/06/06 09:48:19;;;;;;;5.57;3.67;;;;;;;24.00;60.14;100336.09;5089670;28;20177;-80
2023/06/06 09:50:45;;;;;;;3.30;3.00;;;;;;;23.97;59.10;100340.72;5068406;28;20234;-80
2023/06/06 09:53:12;;;;;;;4.30;3.23;;;;;;;23.97;60.37;100348.66;5081139;28;20292;-81
2023/06/06 09:55:39;;;;;;;6.80;3.53;;;;;;;23.93;59.83;100334.78;5089131;28;20208;-81
2023/06/06 09:58:06;;;;;;;3.77;3.37;;;;;;;24.07;59.92;100328.59;5088377;28;20178;-80
2023/06/06 10:00:37;;;;;;;4.47;3.40;;;;;;;24.26;58.98;100337.97;5071284;28;20276;-81
2023/06/06 10:03:04;;;;;;;4.70;3.37;;;;;;;24.47;59.03;100317.19;5071045;28;20201;-80
2023/06/06 10:05:31;;;;;;;4.73;4.27;;;;;;;24.54;57.87;100333.50;5071553;28;20184;-77
2023/06/06 10:07:57;;;;;;;4.47;3.30;;;;;;;24.26;59.03;100324.75;5085244;28;20181;-82
2023/06/06 10:10:24;;;;;;;5.90;3.37;;;;;;;24.46;58.86;100312.84;5075112;28;20178;-80
2023/06/06 10:12:52;;;;;;;4.17;3.27;;;;;;;24.41;59.82;100318.44;5068837;28;20202;-81
2023/06/06 10:15:20;;;;;;;5.33;3.57;;;;;;;24.86;59.31;100320.78;5087442;28;20755;-81
2023/06/06 10:17:45;;;;;;;5.33;3.10;;;;;;;24.62;60.06;100321.44;5073189;28;20176;-81
2023/06/06 10:20:12;;;;;;;4.20;3.80;;;;;;;24.50;59.70;100322.28;5080883;28;20220;-80
2023/06/06 10:22:39;;;;;;;5.20;3.93;;;;;;;24.39;60.56;100323.00;5072321;28;20197;-81
2023/06/06 10:25:07;;;;;;;5.23;3.67;;;;;;;24.25;59.83;100325.69;5065439;28;20191;-81
2023/06/06 10:28:15;;;;;;;5.80;3.63;;;;;;;24.09;59.93;100323.25;5062985;28;20174;-81
2023/06/06 10:30:58;;;;;;;5.97;3.53;;;;;;;23.96;59.73;100317.84;5087349;28;20246;-80
2023/06/06 10:33:33;;;;;;;6.13;3.40;;;;;;;23.90;59.70;100321.75;5069528;28;20265;-79
2023/06/06 10:36:07;;;;;;;4.27;3.70;;;;;;;23.94;59.97;100314.47;5085185;28;20530;-79
2023/06/06 10:38:33;;;;;;;6.40;3.80;;;;;;;23.93;58.95;100321.56;5089847;28;20183;-81
2023/06/06 10:40:59;;;;;;;5.30;3.30;;;;;;;24.01;59.79;100313.16;5083339;28;20192;-81
2023/06/06 10:43:33;;;;;;;3.83;3.53;;;;;;;24.11;59.66;100313.41;5059844;28;20205;-79
2023/06/06 10:46:00;;;;;;;4.13;3.10;;;;;;;24.40;59.66;100311.47;5066487;28;20172;-80
2023/06/06 10:48:45;;;;;;;5.40;3.80;;;;;;;24.82;59.05;100300.75;5090054;28;20181;-80
2023/06/06 10:51:22;;;;;;;4.73;4.33;;;;;;;25.18;60.11;100299.16;5056854;28;20182;-81
2023/06/06 10:54:18;;;;;;;4.10;3.70;;;;;;;25.08;58.90;100296.31;5083242;28;20212;-82
2023/06/06 10:56:54;;;;;;;3.70;3.40;;;;;;;24.84;58.28;100298.00;5084039;28;20201;-81
2023/06/06 10:59:27;;;;;;;3.60;3.30;;;;;;;24.74;58.47;100306.56;5079021;28;20180;-79
2023/06/06 11:01:54;;;;;;;4.87;3.60;;;;;;;24.71;59.13;100293.53;5079518;28;20201;-78
2023/06/06 11:04:24;;;;;;;7.13;3.63;;;;;;;24.56;59.07;100290.13;5090655;28;20187;-81
2023/06/06 11:07:16;;;;;;;7.67;3.60;;;;;;;24.86;59.14;100285.50;5068671;28;20224;-80
2023/06/06 11:09:42;;;;;;;6.70;3.77;;;;;;;24.61;59.49;100281.88;5069277;28;20192;-77
2023/06/06 11:12:13;;;;;;;4.80;3.53;;;;;;;24.93;58.56;100277.03;5078574;28;20202;-81
2023/06/06 11:14:57;;;;;;;4.03;3.67;;;;;;;25.20;58.82;100278.69;5070500;28;20198;-76
2023/06/06 11:17:30;;;;;;;7.67;3.60;;;;;;;25.23;59.30;100286.41;5080423;28;20499;-77
2023/06/06 11:19:56;;;;;;;3.57;3.20;;;;;;;25.53;57.05;100287.88;5079983;28;20180;-76
2023/06/06 11:22:26;;;;;;;4.20;3.80;;;;;;;25.49;56.11;100280.25;5080109;28;20278;-77
2023/06/06 11:24:54;;;;;;;3.83;3.53;;;;;;;25.45;57.55;100284.94;5078910;28;20185;-77
2023/06/06 11:27:21;;;;;;;4.23;3.63;;;;;;;25.37;56.29;100279.28;5078168;28;20195;-78